createdAt,value
2022-07-27T14:44:07.945Z,99955.37
2022-07-27T14:46:40.597Z,99954.05
2022-07-27T14:49:15.039Z,99954.98
2022-07-27T14:51:47.648Z,99952.83
2022-07-27T14:54:20.406Z,99953.02
2022-07-27T14:56:52.654Z,99946.90
2022-07-27T14:59:25.063Z,99952.48
2022-07-27T15:01:57.577Z,99948.83
2022-07-27T15:04:31.910Z,99949.51
2022-07-27T15:07:04.782Z,99945.73
2022-07-27T15:09:37.911Z,99939.58
2022-07-27T15:12:10.682Z,99943.44
2022-07-27T15:14:43.697Z,99941.52
2022-07-27T15:17:16.498Z,99949.70
2022-07-27T15:19:48.803Z,99947.27
2022-07-27T15:22:21.617Z,99946.25
2022-07-27T15:24:57.090Z,99947.46
2022-07-27T15:27:29.507Z,99949.45
2022-07-27T15:30:02.495Z,99946.41
2022-07-27T15:32:34.927Z,99946.64
2022-07-27T15:35:08.479Z,99946.45
2022-07-27T15:37:40.801Z,99947.41
2022-07-27T15:40:39.212Z,99944.30
2022-07-27T15:43:14.253Z,99943.95
2022-07-27T15:45:48.509Z,99943.11
2022-07-27T15:48:23.292Z,99942.00
2022-07-27T15:50:58.720Z,99947.61
2022-07-27T15:53:32.202Z,99949.50
2022-07-27T15:56:04.300Z,99955.80
2022-07-27T15:58:37.190Z,99953.43
2022-07-27T16:01:12.162Z,99951.11
2022-07-27T16:03:45.525Z,99943.41
2022-07-27T16:06:20.977Z,99946.30
2022-07-27T16:08:53.509Z,99948.15
2022-07-27T16:11:25.987Z,99946.60
2022-07-27T16:13:58.665Z,99942.35
2022-07-27T16:16:31.846Z,99940.29
2022-07-27T16:19:12.906Z,99940.19
2022-07-27T16:21:53.312Z,99935.75
2022-07-27T16:24:28.125Z,99931.80
2022-07-27T16:27:01.851Z,99928.55
2022-07-27T16:29:34.506Z,99929.56
2022-07-27T16:32:07.258Z,99926.70
2022-07-27T16:34:40.177Z,99926.61
2022-07-27T16:37:13.264Z,99928.13
2022-07-27T16:39:45.871Z,99928.58
2022-07-27T16:42:18.211Z,99933.64
2022-07-27T16:44:51.096Z,99931.43
2022-07-27T16:47:23.775Z,99925.67
2022-07-27T16:49:56.475Z,99928.48
2022-07-27T16:52:28.970Z,99931.82
2022-07-27T16:55:01.887Z,99932.66
2022-07-27T16:57:34.496Z,99928.46
2022-07-27T17:00:10.159Z,99926.84
2022-07-27T17:02:42.924Z,99929.95
2022-07-27T17:05:15.408Z,99930.94
2022-07-27T17:07:50.712Z,99928.66
2022-07-27T17:10:27.226Z,99924.73
2022-07-27T17:12:58.974Z,99919.70
2022-07-27T17:15:32.775Z,99912.95
2022-07-27T17:18:06.100Z,99913.47
2022-07-27T17:20:40.264Z,99915.79
2022-07-27T17:23:12.567Z,99916.58
2022-07-27T17:25:45.387Z,99915.83
2022-07-27T17:28:17.819Z,99918.95
2022-07-27T17:30:50.644Z,99914.75
2022-07-27T17:33:22.905Z,99919.67
2022-07-27T17:35:58.234Z,99922.20
2022-07-27T17:38:30.589Z,99918.69
2022-07-27T17:41:04.887Z,99926.84
2022-07-27T17:43:39.039Z,99930.00
2022-07-27T17:46:13.076Z,99926.60
2022-07-27T17:48:45.662Z,99928.86
2022-07-27T17:51:18.108Z,99929.44
2022-07-27T17:53:50.768Z,99928.61
2022-07-27T17:56:23.328Z,99929.09
2022-07-27T17:59:01.555Z,99932.42
2022-07-27T18:01:48.401Z,99938.10
2022-07-27T18:04:21.427Z,99942.37
2022-07-27T18:06:53.885Z,99943.70
2022-07-27T18:09:26.134Z,99942.02
2022-07-27T18:11:58.761Z,99942.33
2022-07-27T18:14:31.312Z,99938.86
2022-07-27T18:17:03.872Z,99940.45
2022-07-27T18:19:36.084Z,99937.94
2022-07-27T18:22:08.865Z,99935.40
2022-07-27T18:24:41.387Z,99931.71
2022-07-27T18:27:14.031Z,99934.61
2022-07-27T18:29:46.442Z,99936.65
2022-07-27T18:32:19.078Z,99940.59
2022-07-27T18:34:51.448Z,99937.95
2022-07-27T18:37:24.131Z,99939.81
2022-07-27T18:39:56.649Z,99942.39
2022-07-27T18:42:29.257Z,99945.34
2022-07-27T18:45:01.853Z,99949.11
2022-07-27T18:47:34.443Z,99953.02
2022-07-27T18:50:08.629Z,99952.71
2022-07-27T18:52:41.334Z,99963.70
2022-07-27T18:55:15.214Z,99966.59
2022-07-27T18:57:47.945Z,99972.82
2022-07-27T19:00:21.054Z,99975.16
2022-07-27T19:02:57.243Z,99978.06
2022-07-27T19:05:32.696Z,99977.43
2022-07-27T19:08:14.334Z,99982.38
2022-07-27T19:10:47.595Z,99987.79
2022-07-27T19:13:20.074Z,99989.26
2022-07-27T19:15:52.840Z,99991.81
2022-07-27T19:18:26.483Z,99991.52
2022-07-27T19:20:58.739Z,99993.80
2022-07-27T19:23:31.190Z,99992.30
2022-07-27T19:26:03.226Z,99996.10
2022-07-27T19:28:35.638Z,99999.05
2022-07-27T19:31:22.540Z,100006.85
2022-07-27T19:33:53.772Z,100010.65
2022-07-27T19:36:26.461Z,100016.64
2022-07-27T19:39:04.142Z,100019.54
2022-07-27T19:41:39.592Z,100025.96
2022-07-27T19:44:12.057Z,100031.97
2022-07-27T19:46:44.390Z,100033.48
2022-07-27T19:49:18.434Z,100038.23
2022-07-27T19:51:50.998Z,100040.95
2022-07-27T19:54:23.167Z,100044.77
2022-07-27T19:56:55.256Z,100048.73
2022-07-27T19:59:27.870Z,100053.60
2022-07-27T20:02:20.070Z,100057.64
2022-07-27T20:04:52.586Z,100064.48
2022-07-27T20:07:24.858Z,100069.64
2022-07-27T20:09:57.168Z,100073.77
2022-07-27T20:12:29.527Z,100075.41
2022-07-27T20:15:01.991Z,100078.22
2022-07-27T20:17:37.310Z,100077.98
2022-07-27T20:20:12.449Z,100079.91
2022-07-27T20:22:44.654Z,100080.39
2022-07-27T20:25:18.650Z,100082.04
2022-07-27T20:27:52.409Z,100083.50
2022-07-27T20:30:24.750Z,100085.89
2022-07-27T20:32:57.017Z,100088.95
2022-07-27T20:35:35.316Z,100086.51
2022-07-27T20:38:10.628Z,100086.14
2022-07-27T20:40:43.034Z,100086.30
2022-07-27T20:43:15.354Z,100091.62
2022-07-27T20:45:47.488Z,100092.27
2022-07-27T20:48:19.810Z,100095.89
2022-07-27T20:50:53.551Z,100101.33
2022-07-27T20:53:26.710Z,100102.25
2022-07-27T20:55:59.220Z,100108.13
2022-07-27T20:58:31.717Z,100110.77
2022-07-27T21:01:04.354Z,100113.45
2022-07-27T21:03:37.112Z,100117.09
2022-07-27T21:06:10.109Z,100120.98
2022-07-27T21:08:46.480Z,100122.25
2022-07-27T21:11:20.380Z,100127.59
2022-07-27T21:13:54.608Z,100125.38
2022-07-27T21:16:27.093Z,100129.91
2022-07-27T21:18:59.647Z,100135.27
2022-07-27T21:21:32.380Z,100132.44
2022-07-27T21:24:19.133Z,100134.61
2022-07-27T21:26:53.777Z,100140.67
2022-07-27T21:29:31.812Z,100137.75
2022-07-27T21:32:04.562Z,100140.41
2022-07-27T21:34:36.921Z,100143.15
2022-07-27T21:37:09.595Z,100150.22
2022-07-27T21:39:41.882Z,100154.48
2022-07-27T21:42:14.482Z,100156.64
2022-07-27T21:44:47.337Z,100158.19
2022-07-27T21:47:19.822Z,100159.86
2022-07-27T21:49:52.084Z,100163.48
2022-07-27T21:52:24.470Z,100169.86
2022-07-27T21:54:56.695Z,100177.01
2022-07-27T21:57:29.118Z,100176.94
2022-07-27T22:00:01.485Z,100185.42
2022-07-27T22:02:36.667Z,100186.89
2022-07-27T22:05:09.903Z,100193.16
2022-07-27T22:07:42.611Z,100195.73
2022-07-27T22:10:16.389Z,100199.89
2022-07-27T22:12:48.986Z,100203.86
2022-07-27T22:15:21.411Z,100205.77
2022-07-27T22:17:53.539Z,100209.64
2022-07-27T22:20:26.385Z,100210.27
2022-07-27T22:22:59.118Z,100211.30
2022-07-27T22:25:31.593Z,100213.46
2022-07-27T22:28:03.929Z,100210.63
2022-07-27T22:30:36.596Z,100208.06
2022-07-27T22:33:09.697Z,100206.27
2022-07-27T22:35:42.548Z,100208.64
2022-07-27T22:38:14.889Z,100209.48
2022-07-27T22:40:47.037Z,100212.71
2022-07-27T22:43:23.009Z,100211.42
2022-07-27T22:45:55.753Z,100213.98
2022-07-27T22:48:28.323Z,100220.39
2022-07-27T22:51:00.712Z,100218.23
2022-07-27T22:53:33.169Z,100226.95
2022-07-27T22:56:06.088Z,100227.00
2022-07-27T22:58:38.227Z,100230.70
2022-07-27T23:01:14.890Z,100229.56
2022-07-27T23:04:02.946Z,100231.94
2022-07-27T23:06:35.235Z,100231.59
2022-07-27T23:09:07.493Z,100233.33
2022-07-27T23:11:39.733Z,100234.73
2022-07-27T23:14:12.381Z,100238.38
2022-07-27T23:16:45.555Z,100235.87
2022-07-27T23:19:17.676Z,100232.73
2022-07-27T23:21:50.644Z,100234.48
2022-07-27T23:24:29.343Z,100233.88
2022-07-27T23:27:02.304Z,100232.91
2022-07-27T23:29:34.644Z,100238.62
2022-07-27T23:32:11.065Z,100244.77
2022-07-27T23:34:43.320Z,100248.58
2022-07-27T23:37:15.978Z,100253.30
2022-07-27T23:39:49.056Z,100256.48
2022-07-27T23:42:21.388Z,100256.02
2022-07-27T23:44:53.928Z,100254.06
2022-07-27T23:47:26.988Z,100263.58
2022-07-27T23:49:59.363Z,100271.20
2022-07-27T23:52:31.727Z,100270.27
2022-07-27T23:55:04.038Z,100273.39
2022-07-27T23:57:36.443Z,100272.60
